createdAt,value
2019-01-12T00:01:47.410Z,18.97
2019-01-12T00:04:16.681Z,20.73
2019-01-12T00:06:45.940Z,13.17
2019-01-12T00:09:15.227Z,15.80
2019-01-12T00:11:44.494Z,12.83
2019-01-12T00:14:13.861Z,12.57
2019-01-12T00:16:43.229Z,14.60
2019-01-12T00:19:12.512Z,11.93
2019-01-12T00:21:41.821Z,15.60
2019-01-12T00:24:11.183Z,13.10
2019-01-12T00:26:40.429Z,10.23
2019-01-12T00:29:09.736Z,10.20
2019-01-12T00:31:39.937Z,50.07
2019-01-12T00:34:09.191Z,16.90
2019-01-12T00:36:38.552Z,7.60
2019-01-12T00:39:08.852Z,8.17
2019-01-12T00:41:38.133Z,10.70
2019-01-12T00:44:07.389Z,11.00
2019-01-12T00:46:36.657Z,9.30
2019-01-12T00:49:05.933Z,12.10
2019-01-12T00:51:35.192Z,12.53
2019-01-12T00:54:04.676Z,11.07
2019-01-12T00:56:33.965Z,7.20
2019-01-12T00:59:03.275Z,10.30
2019-01-12T01:01:32.533Z,9.50
2019-01-12T01:04:01.808Z,10.17
2019-01-12T01:06:31.059Z,9.30
2019-01-12T01:09:00.326Z,12.23
2019-01-12T01:11:29.609Z,16.20
2019-01-12T01:13:58.906Z,10.90
2019-01-12T01:16:28.268Z,8.30
2019-01-12T01:18:57.519Z,16.60
2019-01-12T01:21:26.798Z,10.63
2019-01-12T01:23:56.063Z,7.23
2019-01-12T01:26:25.333Z,6.33
2019-01-12T01:28:54.593Z,7.13
2019-01-12T01:31:23.881Z,14.17
2019-01-12T01:33:53.128Z,7.00
2019-01-12T01:36:22.438Z,9.00
2019-01-12T01:38:51.693Z,10.90
2019-01-12T01:41:20.989Z,10.27
2019-01-12T01:43:50.262Z,8.13
2019-01-12T01:46:19.517Z,16.23
2019-01-12T01:48:48.803Z,10.13
2019-01-12T01:51:18.066Z,8.70
2019-01-12T01:53:47.343Z,15.30
2019-01-12T01:56:16.595Z,15.80
2019-01-12T01:58:45.876Z,14.67
2019-01-12T02:01:15.144Z,17.83
2019-01-12T02:03:44.456Z,18.43
2019-01-12T02:06:13.720Z,19.13
2019-01-12T02:08:42.984Z,13.57
2019-01-12T02:11:12.280Z,10.67
2019-01-12T02:13:41.559Z,11.60
2019-01-12T02:16:10.936Z,15.83
2019-01-12T02:18:40.214Z,14.73
2019-01-12T02:21:09.516Z,18.77
2019-01-12T02:23:38.781Z,14.50
2019-01-12T02:26:08.049Z,16.23
2019-01-12T02:28:37.311Z,14.53
2019-01-12T02:31:06.605Z,18.77
2019-01-12T02:33:35.865Z,22.63
2019-01-12T02:36:05.152Z,15.00
2019-01-12T02:38:34.419Z,22.77
2019-01-12T02:41:03.701Z,23.87
2019-01-12T02:43:32.960Z,23.67
2019-01-12T02:46:02.237Z,26.27
2019-01-12T02:48:31.520Z,16.80
2019-01-12T02:51:00.766Z,14.87
2019-01-12T02:53:30.052Z,17.37
2019-01-12T02:55:59.308Z,17.17
2019-01-12T02:58:28.666Z,17.40
2019-01-12T03:00:57.935Z,23.93
2019-01-12T03:03:27.217Z,21.30
2019-01-12T03:05:56.471Z,29.20
2019-01-12T03:08:25.778Z,21.47
2019-01-12T03:10:55.099Z,23.63
2019-01-12T03:13:24.399Z,23.13
2019-01-12T03:15:53.644Z,29.90
2019-01-12T03:18:22.920Z,31.03
2019-01-12T03:20:52.365Z,21.73
2019-01-12T03:23:21.628Z,25.50
2019-01-12T03:25:50.920Z,24.00
2019-01-12T03:28:20.214Z,23.87
2019-01-12T03:30:49.563Z,25.33
2019-01-12T03:33:18.898Z,21.83
2019-01-12T03:35:48.180Z,23.50
2019-01-12T03:38:17.438Z,25.07
2019-01-12T03:40:46.731Z,29.27
2019-01-12T03:43:16.042Z,23.60
2019-01-12T03:45:45.316Z,20.93
2019-01-12T03:48:14.567Z,30.13
2019-01-12T03:50:43.847Z,23.93
2019-01-12T03:53:13.107Z,21.67
2019-01-12T03:55:42.415Z,25.50
2019-01-12T03:58:11.674Z,24.70
2019-01-12T04:00:40.959Z,22.83
2019-01-12T04:03:10.229Z,23.73
2019-01-12T04:05:39.489Z,28.17
2019-01-12T04:08:08.774Z,28.70
2019-01-12T04:10:38.050Z,21.87
2019-01-12T04:13:07.358Z,23.47
2019-01-12T04:15:36.683Z,25.27
2019-01-12T04:18:05.959Z,23.83
2019-01-12T04:20:35.233Z,21.47
2019-01-12T04:23:04.523Z,25.70
2019-01-12T04:25:34.481Z,21.93
2019-01-12T04:28:03.895Z,26.53
2019-01-12T04:30:33.154Z,24.50
2019-01-12T04:33:02.429Z,18.53
2019-01-12T04:35:31.693Z,26.07
2019-01-12T04:38:00.974Z,24.20
2019-01-12T04:40:30.274Z,25.60
2019-01-12T04:42:59.524Z,21.53
2019-01-12T04:45:28.791Z,23.87
2019-01-12T04:47:58.054Z,22.80
2019-01-12T04:50:27.339Z,18.87
2019-01-12T04:52:56.596Z,16.67
2019-01-12T04:55:25.875Z,18.63
2019-01-12T04:57:55.141Z,14.90
2019-01-12T05:00:24.413Z,25.90
2019-01-12T05:02:53.691Z,14.13
2019-01-12T05:05:22.941Z,14.50
2019-01-12T05:07:52.252Z,17.13
2019-01-12T05:10:21.509Z,12.87
2019-01-12T05:12:50.788Z,14.70
2019-01-12T05:15:20.160Z,15.53
2019-01-12T05:17:49.441Z,16.50
2019-01-12T05:20:20.414Z,21.53
2019-01-12T05:22:49.925Z,18.63
2019-01-12T05:25:19.522Z,14.50
2019-01-12T05:27:48.848Z,15.03
2019-01-12T05:30:22.189Z,16.43
2019-01-12T05:32:51.820Z,13.40
2019-01-12T05:35:21.079Z,12.63
2019-01-12T05:37:50.340Z,15.67
2019-01-12T05:40:19.613Z,16.37
2019-01-12T05:42:48.871Z,17.73
2019-01-12T05:45:18.228Z,19.97
2019-01-12T05:47:47.492Z,19.97
2019-01-12T05:50:16.763Z,17.30
2019-01-12T05:52:46.012Z,20.17
2019-01-12T05:55:15.293Z,24.23
2019-01-12T05:57:44.551Z,16.67
2019-01-12T06:00:19.260Z,17.43
2019-01-12T06:02:48.613Z,16.30
2019-01-12T06:05:17.872Z,16.30
2019-01-12T06:07:47.239Z,17.10
2019-01-12T06:10:16.501Z,17.17
2019-01-12T06:12:45.784Z,18.70
2019-01-12T06:15:15.753Z,13.07
2019-01-12T06:17:45.036Z,14.93
2019-01-12T06:20:15.357Z,10.40
2019-01-12T06:22:44.727Z,9.90
2019-01-12T06:25:14.001Z,11.50
2019-01-12T06:27:43.339Z,10.70
2019-01-12T06:30:20.341Z,14.00
2019-01-12T06:32:49.638Z,8.13
2019-01-12T06:35:18.888Z,10.80
2019-01-12T06:37:48.256Z,8.60
2019-01-12T06:40:18.852Z,7.53
2019-01-12T06:42:48.584Z,8.67
2019-01-12T06:45:18.689Z,11.93
2019-01-12T06:47:47.976Z,9.63
2019-01-12T06:50:20.410Z,10.90
2019-01-12T06:52:49.700Z,10.77
2019-01-12T06:55:18.956Z,11.03
2019-01-12T06:57:48.243Z,10.60
2019-01-12T07:00:19.490Z,8.90
2019-01-12T07:02:49.070Z,9.43
2019-01-12T07:05:18.428Z,9.20
2019-01-12T07:07:47.685Z,16.67
2019-01-12T07:10:17.012Z,9.70
2019-01-12T07:12:46.264Z,11.63
2019-01-12T07:15:15.652Z,12.27
2019-01-12T07:17:45.072Z,15.30
2019-01-12T07:20:15.934Z,13.33
2019-01-12T07:22:46.424Z,9.93
2019-01-12T07:25:16.152Z,14.17
2019-01-12T07:27:45.500Z,12.27
2019-01-12T07:30:21.520Z,15.80
2019-01-12T07:32:53.692Z,11.67
2019-01-12T07:35:23.068Z,16.40
2019-01-12T07:37:52.501Z,22.23
2019-01-12T07:40:21.795Z,13.57
2019-01-12T07:42:51.536Z,17.60
2019-01-12T07:45:21.439Z,15.30
2019-01-12T07:47:50.744Z,20.10
2019-01-12T07:50:20.101Z,25.07
2019-01-12T07:52:49.425Z,24.60
2019-01-12T07:55:18.966Z,23.00
2019-01-12T07:57:48.385Z,21.70
2019-01-12T08:00:29.243Z,22.83
2019-01-12T08:02:58.599Z,27.20
2019-01-12T08:05:27.908Z,28.60
2019-01-12T08:07:57.260Z,28.17
2019-01-12T08:10:27.103Z,27.73
2019-01-12T08:12:56.847Z,31.63
2019-01-12T08:15:26.128Z,27.87
2019-01-12T08:17:55.404Z,31.40
2019-01-12T08:20:24.761Z,39.07
2019-01-12T08:22:54.402Z,32.30
2019-01-12T08:25:23.672Z,30.77
2019-01-12T08:27:53.005Z,30.73
2019-01-12T08:30:22.370Z,30.80
2019-01-12T08:32:51.656Z,33.10
2019-01-12T08:35:20.920Z,30.83
2019-01-12T08:37:50.181Z,25.87
2019-01-12T08:40:19.447Z,29.40
2019-01-12T08:42:48.699Z,31.83
2019-01-12T08:45:17.993Z,42.57
2019-01-12T08:47:47.456Z,38.67
2019-01-12T08:50:18.863Z,36.90
2019-01-12T08:52:48.748Z,32.47
2019-01-12T08:55:18.427Z,31.43
2019-01-12T08:57:47.786Z,27.60
2019-01-12T09:00:21.610Z,28.17
2019-01-12T09:02:50.962Z,26.77
2019-01-12T09:05:20.420Z,26.67
2019-01-12T09:07:49.758Z,26.70
2019-01-12T09:10:22.755Z,25.10
2019-01-12T09:12:52.201Z,28.07
2019-01-12T09:15:22.488Z,28.03
2019-01-12T09:17:51.768Z,28.50
2019-01-12T09:20:21.118Z,32.57
2019-01-12T09:22:50.637Z,31.50
2019-01-12T09:25:19.932Z,24.10
2019-01-12T09:27:49.182Z,20.57
2019-01-12T09:30:22.887Z,28.47
2019-01-12T09:32:52.613Z,26.50
2019-01-12T09:35:21.903Z,25.50
2019-01-12T09:37:51.166Z,42.87
2019-01-12T09:40:21.770Z,24.27
2019-01-12T09:42:51.684Z,20.60
2019-01-12T09:45:21.365Z,26.43
2019-01-12T09:47:50.812Z,19.60
2019-01-12T09:50:21.257Z,23.90
2019-01-12T09:52:50.645Z,21.07
2019-01-12T09:55:19.955Z,24.77
2019-01-12T09:57:49.890Z,24.10
2019-01-12T10:00:21.318Z,26.30
2019-01-12T10:02:50.615Z,21.83
2019-01-12T10:05:19.882Z,20.23
2019-01-12T10:07:49.152Z,28.83
2019-01-12T10:10:19.914Z,24.37
2019-01-12T10:12:49.798Z,19.90
2019-01-12T10:15:19.303Z,26.40
2019-01-12T10:17:48.776Z,26.17
2019-01-12T10:20:19.236Z,22.53
2019-01-12T10:22:48.587Z,28.97
2019-01-12T10:25:18.492Z,25.23
2019-01-12T10:27:47.756Z,30.43
2019-01-12T10:30:22.108Z,27.23
2019-01-12T10:32:51.380Z,23.90
2019-01-12T10:35:20.882Z,29.97
2019-01-12T10:37:50.199Z,21.60
2019-01-12T10:40:19.829Z,25.83
2019-01-12T10:42:49.745Z,21.23
2019-01-12T10:45:20.541Z,21.37
2019-01-12T10:47:49.798Z,26.80
2019-01-12T10:50:21.954Z,23.90
2019-01-12T10:52:51.211Z,25.87
2019-01-12T10:55:20.487Z,24.37
2019-01-12T10:57:49.769Z,29.60
2019-01-12T11:00:21.710Z,26.60
2019-01-12T11:02:51.105Z,31.70
2019-01-12T11:05:20.591Z,32.70
2019-01-12T11:07:49.892Z,31.47
2019-01-12T11:10:19.384Z,27.93
2019-01-12T11:12:48.667Z,25.30
2019-01-12T11:15:19.327Z,29.90
2019-01-12T11:17:48.866Z,22.63
2019-01-12T11:20:18.520Z,25.60
2019-01-12T11:22:47.917Z,32.33
2019-01-12T11:25:17.329Z,21.90
2019-01-12T11:27:46.627Z,31.10
2019-01-12T11:30:17.989Z,25.37
2019-01-12T11:32:48.506Z,28.90
2019-01-12T11:35:17.820Z,25.20
2019-01-12T11:37:47.097Z,25.07
2019-01-12T11:40:20.493Z,22.23
2019-01-12T11:42:51.337Z,26.43
2019-01-12T11:45:20.813Z,24.60
2019-01-12T11:47:50.288Z,25.93
2019-01-12T11:50:19.555Z,28.83
2019-01-12T11:52:48.942Z,20.43
2019-01-12T11:55:19.792Z,22.23
2019-01-12T11:57:49.061Z,20.87
2019-01-12T12:00:29.234Z,23.87
2019-01-12T12:02:58.947Z,22.43
2019-01-12T12:05:28.208Z,18.67
2019-01-12T12:07:57.996Z,21.27
2019-01-12T12:10:27.261Z,17.60
2019-01-12T12:12:56.561Z,18.57
2019-01-12T12:15:25.812Z,28.83
2019-01-12T12:17:55.111Z,22.53
2019-01-12T12:20:28.444Z,21.70
2019-01-12T12:22:57.929Z,22.00
2019-01-12T12:25:27.342Z,20.77
2019-01-12T12:27:56.609Z,23.50
2019-01-12T12:30:32.205Z,25.27
2019-01-12T12:33:01.456Z,26.97
2019-01-12T12:35:37.471Z,20.77
2019-01-12T12:38:01.724Z,25.13
2019-01-12T12:40:30.994Z,29.47
2019-01-12T12:43:00.243Z,34.67
2019-01-12T12:45:34.112Z,25.90
2019-01-12T12:48:03.776Z,24.10
2019-01-12T12:50:33.672Z,31.33
2019-01-12T12:53:02.929Z,28.93
2019-01-12T12:55:32.184Z,26.90
2019-01-12T12:58:01.468Z,25.53
2019-01-12T13:00:32.359Z,26.10
2019-01-12T13:03:01.669Z,26.07
2019-01-12T13:05:30.929Z,37.10
2019-01-12T13:08:00.276Z,32.60
2019-01-12T13:10:33.324Z,32.17
2019-01-12T13:13:02.624Z,29.17
2019-01-12T13:15:31.877Z,26.83
2019-01-12T13:18:01.552Z,31.03
2019-01-12T13:20:30.816Z,32.77
2019-01-12T13:23:00.113Z,27.60
2019-01-12T13:25:29.651Z,38.67
2019-01-12T13:27:59.001Z,27.93
2019-01-12T13:30:28.870Z,31.03
2019-01-12T13:32:58.168Z,31.37
2019-01-12T13:35:27.450Z,23.40
2019-01-12T13:37:57.049Z,36.87
2019-01-12T13:40:27.895Z,26.10
2019-01-12T13:42:57.179Z,23.33
2019-01-12T13:45:26.746Z,28.13
2019-01-12T13:47:56.200Z,20.77
2019-01-12T13:50:27.361Z,27.40
2019-01-12T13:52:56.703Z,25.63
2019-01-12T13:55:26.055Z,29.00
2019-01-12T13:57:55.337Z,28.50
2019-01-12T14:00:33.275Z,17.37
2019-01-12T14:03:02.668Z,16.90
2019-01-12T14:05:32.103Z,22.27
2019-01-12T14:08:01.688Z,18.27
2019-01-12T14:10:31.081Z,16.30
2019-01-12T14:13:00.355Z,20.53
2019-01-12T14:15:29.645Z,13.67
2019-01-12T14:17:58.965Z,10.70
2019-01-12T14:20:30.718Z,8.43
2019-01-12T14:22:59.976Z,7.30
2019-01-12T14:25:29.266Z,13.30
2019-01-12T14:27:58.542Z,14.17
2019-01-12T14:30:27.800Z,8.50
2019-01-12T14:32:57.093Z,7.17
2019-01-12T14:35:26.365Z,10.43
2019-01-12T14:37:55.653Z,11.90
2019-01-12T14:40:24.918Z,5.83
2019-01-12T14:42:54.188Z,9.50
2019-01-12T14:45:26.228Z,5.40
2019-01-12T14:47:55.601Z,4.37
2019-01-12T14:50:24.955Z,5.30
2019-01-12T14:52:54.421Z,6.03
2019-01-12T14:55:24.097Z,6.90
2019-01-12T14:57:53.421Z,4.30
2019-01-12T15:00:24.706Z,4.07
2019-01-12T15:02:54.039Z,4.00
2019-01-12T15:05:25.435Z,4.10
2019-01-12T15:07:54.764Z,4.30
2019-01-12T15:10:24.042Z,4.40
2019-01-12T15:12:53.353Z,3.70
2019-01-12T15:15:22.623Z,4.70
2019-01-12T15:17:51.910Z,4.40
2019-01-12T15:20:26.670Z,3.63
2019-01-12T15:22:55.934Z,5.00
2019-01-12T15:25:25.280Z,3.63
2019-01-12T15:27:54.584Z,5.90
2019-01-12T15:30:28.445Z,4.27
2019-01-12T15:32:57.851Z,4.60
2019-01-12T15:35:29.733Z,4.23
2019-01-12T15:37:58.991Z,4.00
2019-01-12T15:40:28.253Z,5.20
2019-01-12T15:42:57.510Z,7.97
2019-01-12T15:45:26.890Z,16.33
2019-01-12T15:47:56.148Z,4.03
2019-01-12T15:50:26.931Z,7.10
2019-01-12T15:52:56.323Z,4.80
2019-01-12T15:55:26.002Z,4.57
2019-01-12T15:57:55.300Z,4.47
2019-01-12T16:00:28.990Z,4.40
2019-01-12T16:02:58.619Z,6.10
2019-01-12T16:05:29.078Z,9.07
2019-01-12T16:07:58.357Z,4.27
2019-01-12T16:10:27.628Z,5.53
2019-01-12T16:12:57.091Z,3.80
2019-01-12T16:15:27.804Z,4.47
2019-01-12T16:17:57.886Z,5.60
2019-01-12T16:20:45.216Z,5.50
2019-01-12T16:23:17.473Z,5.40
2019-01-12T16:25:46.731Z,7.13
2019-01-12T16:28:22.915Z,7.00
2019-01-12T16:30:47.046Z,6.93
2019-01-12T16:33:16.347Z,7.23
2019-01-12T16:35:45.609Z,6.67
2019-01-12T16:38:14.908Z,7.23
2019-01-12T16:40:44.156Z,7.93
2019-01-12T16:43:13.420Z,7.60
2019-01-12T16:45:42.728Z,7.77
2019-01-12T16:48:12.017Z,6.80
2019-01-12T16:50:41.288Z,8.83
2019-01-12T16:53:10.600Z,9.33
2019-01-12T16:55:40.051Z,7.47
2019-01-12T16:58:09.349Z,7.63
2019-01-12T17:00:38.619Z,8.10
2019-01-12T17:03:07.894Z,7.37
2019-01-12T17:05:37.176Z,6.70
2019-01-12T17:08:06.437Z,7.50
2019-01-12T17:10:35.705Z,7.87
2019-01-12T17:13:05.067Z,8.90
2019-01-12T17:15:34.742Z,8.27
2019-01-12T17:18:04.482Z,13.47
2019-01-12T17:20:33.738Z,8.83
2019-01-12T17:23:04.780Z,10.70
2019-01-12T17:25:34.581Z,10.60
2019-01-12T17:28:03.847Z,9.90
2019-01-12T17:30:33.132Z,11.67
2019-01-12T17:33:02.408Z,10.63
2019-01-12T17:35:31.686Z,11.93
2019-01-12T17:38:01.292Z,11.10
2019-01-12T17:40:30.611Z,12.90
2019-01-12T17:42:59.919Z,13.57
2019-01-12T17:45:29.184Z,14.17
2019-01-12T17:47:58.473Z,13.80
2019-01-12T17:50:28.590Z,13.03
2019-01-12T17:52:57.873Z,11.63
2019-01-12T17:55:28.424Z,13.10
2019-01-12T17:57:57.785Z,11.43
2019-01-12T18:00:49.650Z,12.80
2019-01-12T18:03:18.927Z,16.73
2019-01-12T18:05:48.188Z,19.17
2019-01-12T18:08:17.473Z,13.40
2019-01-12T18:10:46.736Z,14.27
2019-01-12T18:13:16.220Z,22.30
2019-01-12T18:15:45.547Z,13.63
2019-01-12T18:18:14.805Z,18.83
2019-01-12T18:20:44.088Z,14.83
2019-01-12T18:23:13.366Z,17.00
2019-01-12T18:25:42.726Z,12.23
2019-01-12T18:28:12.000Z,12.73
2019-01-12T18:30:41.455Z,13.43
2019-01-12T18:33:10.812Z,15.13
2019-01-12T18:35:40.094Z,21.50
2019-01-12T18:38:09.360Z,13.90
2019-01-12T18:40:38.641Z,12.50
2019-01-12T18:43:07.900Z,8.60
2019-01-12T18:45:37.184Z,11.03
2019-01-12T18:48:06.905Z,10.03
2019-01-12T18:50:36.218Z,11.37
2019-01-12T18:53:05.507Z,10.83
2019-01-12T18:55:34.881Z,18.40
2019-01-12T18:58:04.143Z,10.37
2019-01-12T19:00:33.470Z,7.37
2019-01-12T19:03:02.837Z,13.47
2019-01-12T19:05:32.119Z,13.33
2019-01-12T19:08:01.389Z,8.10
2019-01-12T19:10:30.672Z,13.97
2019-01-12T19:13:00.032Z,12.50
2019-01-12T19:15:31.396Z,20.90
2019-01-12T19:18:00.661Z,8.80
2019-01-12T19:20:29.940Z,9.10
2019-01-12T19:22:59.201Z,9.23
2019-01-12T19:25:28.463Z,12.83
2019-01-12T19:27:57.745Z,13.07
2019-01-12T19:30:27.017Z,10.23
2019-01-12T19:32:56.373Z,9.00
2019-01-12T19:35:25.632Z,5.80
2019-01-12T19:37:54.914Z,9.87
2019-01-12T19:40:25.681Z,7.60
2019-01-12T19:42:54.980Z,8.73
2019-01-12T19:45:24.223Z,7.00
2019-01-12T19:47:53.684Z,9.20
2019-01-12T19:50:25.328Z,11.07
2019-01-12T19:52:55.109Z,13.27
2019-01-12T19:55:24.456Z,11.90
2019-01-12T19:57:53.760Z,11.37
2019-01-12T20:00:28.529Z,20.27
2019-01-12T20:02:57.816Z,14.33
2019-01-12T20:05:27.095Z,22.63
2019-01-12T20:07:56.360Z,13.80
2019-01-12T20:10:25.661Z,12.83
2019-01-12T20:12:55.070Z,16.37
2019-01-12T20:15:25.623Z,20.53
2019-01-12T20:17:55.122Z,15.73
2019-01-12T20:20:24.439Z,15.23
2019-01-12T20:22:53.958Z,15.60
2019-01-12T20:25:31.141Z,15.47
2019-01-12T20:28:12.304Z,7.53
2019-01-12T20:31:25.919Z,14.60
2019-01-12T20:34:09.696Z,9.03
2019-01-12T20:37:06.025Z,5.93
2019-01-12T20:40:26.069Z,7.57
2019-01-12T20:43:44.729Z,10.50
2019-01-12T20:46:34.642Z,23.60
2019-01-12T20:49:31.509Z,8.90
2019-01-12T20:52:42.508Z,10.27
2019-01-12T20:55:46.303Z,13.60
2019-01-12T20:58:55.801Z,10.50
2019-01-12T21:02:05.624Z,20.27
2019-01-12T21:05:13.339Z,17.47
2019-01-12T21:08:12.569Z,16.20
2019-01-12T21:11:18.325Z,21.70
2019-01-12T21:14:43.840Z,19.53
2019-01-12T21:17:15.492Z,19.40
2019-01-12T21:19:48.460Z,21.43
2019-01-12T21:22:15.963Z,16.03
2019-01-12T21:24:45.407Z,12.60
2019-01-12T21:27:14.857Z,17.47
2019-01-12T21:29:44.116Z,13.77
2019-01-12T21:32:13.475Z,13.37
2019-01-12T21:34:42.816Z,12.23
2019-01-12T21:37:12.170Z,14.07
2019-01-12T21:39:41.487Z,10.50
2019-01-12T21:42:10.819Z,13.53
2019-01-12T21:44:40.128Z,12.17
2019-01-12T21:47:09.451Z,12.07
2019-01-12T21:49:38.807Z,12.27
2019-01-12T21:52:08.133Z,12.00
2019-01-12T21:54:37.456Z,11.10
2019-01-12T21:57:06.825Z,13.37
2019-01-12T21:59:42.256Z,10.83
2019-01-12T22:02:07.261Z,24.47
2019-01-12T22:04:36.800Z,11.83
2019-01-12T22:07:06.158Z,19.00
2019-01-12T22:09:35.564Z,22.00
2019-01-12T22:12:05.974Z,20.33
2019-01-12T22:14:35.432Z,19.37
2019-01-12T22:17:04.781Z,32.70
2019-01-12T22:19:34.112Z,21.70
2019-01-12T22:22:03.503Z,16.20
2019-01-12T22:24:32.863Z,16.33
2019-01-12T22:27:03.106Z,22.17
2019-01-12T22:29:32.395Z,19.23
2019-01-12T22:32:01.690Z,19.23
2019-01-12T22:34:30.995Z,20.80
2019-01-12T22:37:00.269Z,15.87
2019-01-12T22:39:29.569Z,19.53
2019-01-12T22:41:58.920Z,18.57
2019-01-12T22:44:28.199Z,21.77
2019-01-12T22:46:57.472Z,24.00
2019-01-12T22:49:26.805Z,14.90
2019-01-12T22:51:56.105Z,15.67
2019-01-12T22:54:25.434Z,19.27
2019-01-12T22:56:54.794Z,22.97
2019-01-12T22:59:24.052Z,14.80
2019-01-12T23:01:59.929Z,25.10
2019-01-12T23:04:30.121Z,24.73
2019-01-12T23:07:01.092Z,19.80
2019-01-12T23:09:31.466Z,21.13
2019-01-12T23:12:00.835Z,26.37
2019-01-12T23:14:30.217Z,33.00
2019-01-12T23:16:59.574Z,24.73
2019-01-12T23:19:28.907Z,19.67
2019-01-12T23:21:59.726Z,21.87
2019-01-12T23:24:29.016Z,25.93
2019-01-12T23:26:58.312Z,29.00
2019-01-12T23:29:27.591Z,25.73
2019-01-12T23:31:56.961Z,34.90
2019-01-12T23:34:26.271Z,24.20
2019-01-12T23:36:55.624Z,22.87
2019-01-12T23:39:24.977Z,30.30
2019-01-12T23:41:54.280Z,30.23
2019-01-12T23:44:23.552Z,30.23
2019-01-12T23:46:52.864Z,22.80
2019-01-12T23:49:22.189Z,26.63
2019-01-12T23:51:51.489Z,24.47
2019-01-12T23:54:20.788Z,29.60
2019-01-12T23:56:50.150Z,22.10
2019-01-12T23:59:19.456Z,23.20
